Airfield :
LOGIN :

Register | Disclaimer

   EN    FR    IT 

 










Legend :    VFR   Marginal VFR   IFR   Intensive IFR   Very Intensive IFR
Visi :
Ceiling :
>= 8 km
>= 3000ft
5 to 8 km
1000 to 3000 ft
1500m to 5 km
500 to 1000 ft
800 to 1500m
200 to 500 ft
< 800m
< 200 ft
Symbols :   Thunderstorms  Fog  Heavy snow  Heavy precipitations  Wind > 20 kt
SIGMETs :     Misc.  Thunderstorms  Icing  Turbulence  Mountain Waves  Volcanic Ashes







- Airport Elevation : 160 ft
- IATA code : FMO


EDDG - Münster Osnabrück Int.

CURRENT METAR :
  • 200720Z 24010KT 9999 FEW030 SCT060 BKN120 05/03 Q1018 NOSIG

EXPIRED METARs :
  • 200650Z 24008KT 9999 FEW030 SCT050 BKN120 05/03 Q1018 NOSIG
  • 200620Z 23009KT 9999 -RA FEW013 SCT025 BKN040 05/04 Q1018 NOSIG
  • 200550Z 24010KT 9999 -RA FEW013 BKN040 05/04 Q1018 NOSIG
  • 200520Z 24009KT 9999 FEW040 SCT060 BKN120 05/03 Q1018 NOSIG
  • 200450Z 24009KT 9999 FEW025 SCT040 BKN120 05/03 Q1018 NOSIG

TAF TAF EDDG
Valid from the 20 at 06:00 until the 21 at 06:00 UTC


200500Z 2006/2106 25009KT 9999 SCT030
BECMG 2012/2015 18008KT BKN012
TEMPO 2014/2017 RA
BECMG 2015/2017 BKN007
TEMPO 2017/2102 2500 RADZ BR BKN004
BECMG 2021/2024 24009KT
TEMPO 2102/2106 3500 -RADZ BR BKN004
No reported NOTAMs for that airfield.



MET'MAP, your aeronautical weather chart ! - Copyright ORBIFLY December 2007 - Disclaimer

ORBIFLY MET'MAP TEAM :

Programming & Development : Alexandra Zaïnal
Concept & Development : Baudouin d'Aumeries
Co-Development & Prog : Marc-Olivier Méhu
Technical & hardware support : Manuel Goepfert

Contact : metmap@orbifly.com




SOURCES & CREDITS :

   NOAA